Time;durP1;ratioP1;P1;durP2;ratioP2;P2;SDS_P1;SDS_P2;PMS_P1;PMS_P2;Temp;Humidity;BMP_temperature;BMP_pressure;BME280_temperature;BME280_humidity;BME280_pressure;Samples;Min_cycle;Max_cycle;Signal;HPM_P1;HPM_P2
2022/10/27 00:01:14;;;;;;;8.40;3.67;;;;;;;;;;5110687;28;20236;-82
2022/10/27 00:03:41;;;;;;;7.57;3.37;;;;;;;;;;5100248;28;20244;-82
2022/10/27 00:06:09;;;;;;;7.50;3.70;;;;;;;;;;5106540;28;20658;-81
2022/10/27 00:08:36;;;;;;;7.60;3.70;;;;;;;;;;5107343;28;20225;-82
2022/10/27 00:11:06;;;;;;;7.97;4.07;;;;;;;;;;5099948;28;20250;-81
2022/10/27 00:13:33;;;;;;;7.80;3.57;;;;;;;;;;5112268;28;20250;-82
2022/10/27 00:16:02;;;;;;;8.73;4.00;;;;;;;;;;5106046;28;20225;-82
2022/10/27 00:18:30;;;;;;;9.00;4.20;;;;;;;;;;5102343;28;20251;-81
2022/10/27 00:20:58;;;;;;;5.88;3.70;;;;;;;;;;5106234;28;20276;-82
2022/10/27 00:23:25;;;;;;;9.70;3.87;;;;;;;;;;5097826;28;20225;-82
2022/10/27 00:25:53;;;;;;;5.93;3.90;;;;;;;;;;5105354;28;20304;-82
2022/10/27 00:28:22;;;;;;;9.23;4.17;;;;;;;;;;5100615;28;20213;-82
2022/10/27 00:30:49;;;;;;;7.07;4.13;;;;;;;;;;5102001;28;20233;-81
2022/10/27 00:33:16;;;;;;;6.90;4.33;;;;;;;;;;5102757;28;20713;-82
2022/10/27 00:35:43;;;;;;;6.20;3.90;;;;;;;;;;5105607;28;20632;-82
2022/10/27 00:38:11;;;;;;;8.27;3.80;;;;;;;;;;5104972;28;20217;-82
2022/10/27 00:40:38;;;;;;;5.90;3.50;;;;;;;;;;5106422;28;20236;-82
2022/10/27 00:43:23;;;;;;;8.13;4.00;;;;;;;;;;5102941;28;20229;-81
2022/10/27 00:45:52;;;;;;;6.87;3.77;;;;;;;;;;5101431;28;20253;-81
2022/10/27 00:48:19;;;;;;;7.57;3.90;;;;;;;;;;5105867;28;20254;-81
2022/10/27 00:50:46;;;;;;;6.73;3.80;;;;;;;;;;5105511;28;20240;-82
2022/10/27 00:53:13;;;;;;;6.30;3.60;;;;;;;;;;5106997;28;20290;-82
2022/10/27 00:55:41;;;;;;;4.83;3.70;;;;;;;;;;5095032;28;20226;-82
2022/10/27 00:58:10;;;;;;;6.57;3.57;;;;;;;;;;5102140;28;20225;-82
2022/10/27 01:00:39;;;;;;;6.33;3.23;;;;;;;;;;5100210;28;20654;-81
2022/10/27 01:03:09;;;;;;;5.93;3.97;;;;;;;;;;5096400;28;20285;-82
2022/10/27 01:05:36;;;;;;;6.50;3.73;;;;;;;;;;5093659;28;20305;-81
2022/10/27 01:08:07;;;;;;;7.90;3.90;;;;;;;;;;5099409;28;20297;-81
2022/10/27 01:10:37;;;;;;;6.40;3.53;;;;;;;;;;5113351;28;20216;-81
2022/10/27 01:13:05;;;;;;;7.77;3.80;;;;;;;;;;5111875;28;20316;-81
2022/10/27 01:15:39;;;;;;;6.60;3.63;;;;;;;;;;5109654;28;20199;-81
2022/10/27 01:18:13;;;;;;;10.70;3.93;;;;;;;;;;5095510;28;20569;-81
2022/10/27 01:20:50;;;;;;;7.30;3.70;;;;;;;;;;5103692;28;20237;-81
2022/10/27 01:23:23;;;;;;;4.70;3.53;;;;;;;;;;5101965;28;20312;-81
2022/10/27 01:26:02;;;;;;;5.63;3.53;;;;;;;;;;5095705;28;20339;-81
2022/10/27 01:28:47;;;;;;;9.03;3.87;;;;;;;;;;5093818;28;20281;-81
2022/10/27 01:31:17;;;;;;;5.43;3.50;;;;;;;;;;5092270;28;20230;-82
2022/10/27 01:33:47;;;;;;;4.67;3.60;;;;;;;;;;5091356;28;20285;-81
2022/10/27 01:36:16;;;;;;;8.10;4.20;;;;;;;;;;5092169;28;20288;-82
2022/10/27 01:38:48;;;;;;;8.43;4.50;;;;;;;;;;5094686;28;20237;-81
2022/10/27 01:41:17;;;;;;;7.20;3.90;;;;;;;;;;5112981;28;20288;-81
2022/10/27 01:43:47;;;;;;;6.63;3.73;;;;;;;;;;5096098;28;20614;-81
2022/10/27 01:46:16;;;;;;;6.60;3.53;;;;;;;;;;5092880;28;20628;-81
2022/10/27 01:48:43;;;;;;;11.43;3.70;;;;;;;;;;5092483;28;20280;-81
2022/10/27 01:51:10;;;;;;;4.87;3.33;;;;;;;;;;5092077;28;20248;-81
2022/10/27 01:53:40;;;;;;;5.07;3.53;;;;;;;;;;5092152;28;20685;-82
2022/10/27 01:56:24;;;;;;;5.43;3.53;;;;;;;;;;5091977;28;20659;-82
2022/10/27 01:59:13;;;;;;;4.70;3.40;;;;;;;;;;5092583;28;20234;-82
2022/10/27 02:01:47;;;;;;;6.57;3.37;;;;;;;;;;5092978;28;20692;-82
2022/10/27 02:04:17;;;;;;;6.30;3.70;;;;;;;;;;5092287;28;20237;-81
2022/10/27 02:06:49;;;;;;;6.77;3.00;;;;;;;;;;5092537;28;20657;-82
2022/10/27 02:09:18;;;;;;;7.17;3.10;;;;;;;;;;5101841;28;20190;-82
2022/10/27 02:11:47;;;;;;;5.20;2.90;;;;;;;;;;5099733;28;20658;-82
2022/10/27 02:14:15;;;;;;;8.53;3.20;;;;;;;;;;5092389;28;20194;-81
2022/10/27 02:16:43;;;;;;;7.20;3.07;;;;;;;;;;5095676;28;20226;-81
2022/10/27 02:19:16;;;;;;;6.17;2.47;;;;;;;;;;5111705;28;20696;-81
2022/10/27 02:21:45;;;;;;;6.40;2.57;;;;;;;;;;5106838;28;20361;-81
2022/10/27 02:24:12;;;;;;;5.50;2.63;;;;;;;;;;5106595;28;20301;-81
2022/10/27 02:26:43;;;;;;;6.23;2.37;;;;;;;;;;5098852;28;20309;-81
2022/10/27 02:29:14;;;;;;;4.47;2.40;;;;;;;;;;5098062;28;20253;-81
2022/10/27 02:31:48;;;;;;;5.30;2.40;;;;;;;;;;5102700;28;20283;-81
2022/10/27 02:34:17;;;;;;;5.53;2.63;;;;;;;;;;5106498;28;20233;-81
2022/10/27 02:36:44;;;;;;;4.77;2.30;;;;;;;;;;5101281;28;20729;-81
2022/10/27 02:39:13;;;;;;;3.38;2.20;;;;;;;;;;5095649;28;20277;-81
2022/10/27 02:41:43;;;;;;;6.15;2.50;;;;;;;;;;5103604;28;20690;-81
2022/10/27 02:44:10;;;;;;;5.97;2.28;;;;;;;;;;5098705;28;20186;-82
2022/10/27 02:46:38;;;;;;;5.13;2.42;;;;;;;;;;5094802;28;20310;-81
2022/10/27 02:49:05;;;;;;;6.47;2.50;;;;;;;;;;5097004;28;20236;-81
2022/10/27 02:51:33;;;;;;;5.70;2.75;;;;;;;;;;5108423;28;20273;-82
2022/10/27 02:54:00;;;;;;;5.85;2.70;;;;;;;;;;5102534;28;20229;-81
2022/10/27 02:56:28;;;;;;;4.50;2.60;;;;;;;;;;5104058;28;20233;-81
2022/10/27 02:58:55;;;;;;;7.78;2.85;;;;;;;;;;5095484;28;20281;-81
2022/10/27 03:01:22;;;;;;;5.35;3.00;;;;;;;;;;5108716;28;20640;-81
2022/10/27 03:03:49;;;;;;;5.25;3.10;;;;;;;;;;5110789;28;20286;-82
2022/10/27 03:06:16;;;;;;;6.30;3.20;;;;;;;;;;5104049;28;20300;-82
2022/10/27 03:08:45;;;;;;;9.85;3.47;;;;;;;;;;5098579;28;20234;-81
2022/10/27 03:11:12;;;;;;;6.38;3.20;;;;;;;;;;5100190;28;20285;-81
2022/10/27 03:13:40;;;;;;;8.35;3.53;;;;;;;;;;5105398;28;20317;-81
2022/10/27 03:16:07;;;;;;;8.93;3.58;;;;;;;;;;5100027;28;20196;-81
2022/10/27 03:18:34;;;;;;;7.45;3.80;;;;;;;;;;5101523;28;20221;-81
2022/10/27 03:21:01;;;;;;;7.07;3.17;;;;;;;;;;5105882;28;20237;-81
2022/10/27 03:23:29;;;;;;;5.45;3.03;;;;;;;;;;5094477;28;20788;-81
2022/10/27 03:25:59;;;;;;;7.38;3.47;;;;;;;;;;5111134;28;20671;-81
2022/10/27 03:28:28;;;;;;;6.90;3.55;;;;;;;;;;5106632;28;20615;-81
2022/10/27 03:30:56;;;;;;;9.93;3.55;;;;;;;;;;5104173;28;20623;-80
2022/10/27 03:33:23;;;;;;;10.32;3.70;;;;;;;;;;5100660;28;20639;-81
2022/10/27 03:35:50;;;;;;;7.55;3.88;;;;;;;;;;5106241;28;20225;-81
2022/10/27 03:38:17;;;;;;;6.82;3.65;;;;;;;;;;5097562;28;20273;-80
2022/10/27 03:40:48;;;;;;;8.13;3.95;;;;;;;;;;5101767;28;20289;-80
2022/10/27 03:43:19;;;;;;;10.90;3.53;;;;;;;;;;5110190;28;20232;-82
2022/10/27 03:45:49;;;;;;;10.57;3.58;;;;;;;;;;5091000;28;20222;-81
2022/10/27 03:48:16;;;;;;;8.73;3.05;;;;;;;;;;5095796;28;20194;-82
2022/10/27 03:50:46;;;;;;;8.75;3.25;;;;;;;;;;5110795;28;20222;-81
2022/10/27 03:53:14;;;;;;;9.98;3.72;;;;;;;;;;5103507;28;20285;-81
2022/10/27 03:55:41;;;;;;;7.95;3.10;;;;;;;;;;5111007;28;20229;-82
2022/10/27 03:58:27;;;;;;;9.00;3.40;;;;;;;;;;5097066;28;20622;-82
2022/10/27 04:00:54;;;;;;;11.48;3.60;;;;;;;;;;5107412;28;20795;-82
2022/10/27 04:03:22;;;;;;;8.35;3.40;;;;;;;;;;5094721;28;20334;-82
2022/10/27 04:05:50;;;;;;;6.88;3.60;;;;;;;;;;5095779;28;20198;-82
2022/10/27 04:08:17;;;;;;;11.65;3.63;;;;;;;;;;5107134;28;20190;-81
2022/10/27 04:10:46;;;;;;;6.18;3.50;;;;;;;;;;5095495;28;20226;-82
2022/10/27 04:13:13;;;;;;;7.78;3.60;;;;;;;;;;5101213;28;20568;-81
2022/10/27 04:15:42;;;;;;;8.93;3.35;;;;;;;;;;5102670;28;20285;-82
2022/10/27 04:18:10;;;;;;;9.90;3.75;;;;;;;;;;5094838;28;20670;-82
2022/10/27 04:20:37;;;;;;;7.93;3.47;;;;;;;;;;5104897;28;20234;-82
2022/10/27 04:23:04;;;;;;;8.60;3.50;;;;;;;;;;5108014;28;20734;-82
2022/10/27 04:25:31;;;;;;;8.38;3.70;;;;;;;;;;5103436;28;20226;-82
2022/10/27 04:28:01;;;;;;;8.85;3.70;;;;;;;;;;5114873;28;20249;-82
2022/10/27 04:30:29;;;;;;;6.13;3.55;;;;;;;;;;5095833;28;20305;-82
2022/10/27 04:32:57;;;;;;;8.45;3.53;;;;;;;;;;5114620;28;20206;-82
2022/10/27 04:35:24;;;;;;;9.20;3.83;;;;;;;;;;5109726;28;20234;-82
2022/10/27 04:37:52;;;;;;;7.75;3.50;;;;;;;;;;5103374;28;20754;-81
2022/10/27 04:40:19;;;;;;;8.32;3.47;;;;;;;;;;5109183;28;20288;-82
2022/10/27 04:42:46;;;;;;;9.10;4.18;;;;;;;;;;5097200;28;20244;-82
2022/10/27 04:45:14;;;;;;;6.43;3.60;;;;;;;;;;5109663;28;20206;-81
2022/10/27 04:47:41;;;;;;;7.35;3.70;;;;;;;;;;5104015;28;20773;-81
2022/10/27 04:50:10;;;;;;;10.82;4.38;;;;;;;;;;5095576;28;20285;-81
2022/10/27 04:52:37;;;;;;;9.05;3.90;;;;;;;;;;5098401;28;20241;-81
2022/10/27 04:55:05;;;;;;;11.73;4.53;;;;;;;;;;5100262;28;21042;-81
2022/10/27 04:57:32;;;;;;;10.25;4.32;;;;;;;;;;5108826;28;20218;-81
2022/10/27 04:59:59;;;;;;;12.05;4.05;;;;;;;;;;5106001;28;20248;-81
2022/10/27 05:02:26;;;;;;;9.35;4.13;;;;;;;;;;5107116;28;20236;-82
2022/10/27 05:04:54;;;;;;;9.43;3.72;;;;;;;;;;5101206;28;20277;-81
2022/10/27 05:07:22;;;;;;;7.90;4.18;;;;;;;;;;5102981;28;20232;-81
2022/10/27 05:09:49;;;;;;;7.20;3.85;;;;;;;;;;5097549;28;20281;-81
2022/10/27 05:12:16;;;;;;;9.13;4.20;;;;;;;;;;5112290;28;20320;-81
2022/10/27 05:14:44;;;;;;;7.97;3.88;;;;;;;;;;5100172;28;20694;-81
2022/10/27 05:17:11;;;;;;;7.57;3.72;;;;;;;;;;5110646;28;20233;-81
2022/10/27 05:19:38;;;;;;;11.88;4.00;;;;;;;;;;5096919;28;20240;-81
2022/10/27 05:22:05;;;;;;;10.32;4.25;;;;;;;;;;5105932;28;20287;-81
2022/10/27 05:24:34;;;;;;;8.25;4.25;;;;;;;;;;5099054;28;20226;-81
2022/10/27 05:27:01;;;;;;;9.00;4.05;;;;;;;;;;5108155;28;20300;-81
2022/10/27 05:29:30;;;;;;;8.27;4.22;;;;;;;;;;5095505;28;20705;-81
2022/10/27 05:31:57;;;;;;;7.47;3.92;;;;;;;;;;5093605;28;20252;-81
2022/10/27 05:34:24;;;;;;;10.70;4.30;;;;;;;;;;5113394;28;20669;-81
2022/10/27 05:36:54;;;;;;;9.38;4.20;;;;;;;;;;5111750;28;20234;-81
2022/10/27 05:39:22;;;;;;;8.18;4.30;;;;;;;;;;5112639;28;20293;-81
2022/10/27 05:41:50;;;;;;;6.40;4.50;;;;;;;;;;5092870;28;20278;-81
2022/10/27 05:44:18;;;;;;;8.57;4.05;;;;;;;;;;5093042;28;20717;-81
2022/10/27 05:46:45;;;;;;;11.65;4.40;;;;;;;;;;5092697;28;20250;-82
2022/10/27 05:49:12;;;;;;;8.43;4.88;;;;;;;;;;5092930;28;20198;-82
2022/10/27 05:51:39;;;;;;;11.40;4.90;;;;;;;;;;5092494;28;20271;-81
2022/10/27 05:54:07;;;;;;;8.10;4.53;;;;;;;;;;5092784;28;20198;-82
2022/10/27 05:56:34;;;;;;;9.63;4.70;;;;;;;;;;5097561;28;20242;-82
2022/10/27 05:59:03;;;;;;;9.02;5.15;;;;;;;;;;5105059;28;20229;-82
2022/10/27 06:01:30;;;;;;;8.13;4.95;;;;;;;;;;5099906;28;20254;-82
2022/10/27 06:03:57;;;;;;;10.82;4.75;;;;;;;;;;5103098;28;20276;-81
2022/10/27 06:06:24;;;;;;;10.80;5.38;;;;;;;;;;5103157;28;20229;-82
2022/10/27 06:08:51;;;;;;;12.40;5.45;;;;;;;;;;5092860;28;20698;-81
2022/10/27 06:11:19;;;;;;;10.00;5.20;;;;;;;;;;5110767;28;20285;-81
2022/10/27 06:13:46;;;;;;;8.60;5.30;;;;;;;;;;5099304;28;20251;-81
2022/10/27 06:16:14;;;;;;;9.93;5.20;;;;;;;;;;5106179;28;20229;-81
2022/10/27 06:18:42;;;;;;;10.98;5.55;;;;;;;;;;5097003;28;20221;-81
2022/10/27 06:21:09;;;;;;;11.63;5.03;;;;;;;;;;5104089;28;20229;-81
2022/10/27 06:23:36;;;;;;;8.98;4.95;;;;;;;;;;5101888;28;20230;-81
2022/10/27 06:26:03;;;;;;;8.07;5.20;;;;;;;;;;5102803;28;20194;-81
2022/10/27 06:28:31;;;;;;;10.15;5.35;;;;;;;;;;5094446;28;20254;-81
2022/10/27 06:30:58;;;;;;;10.45;5.32;;;;;;;;;;5092358;28;20202;-81
2022/10/27 06:33:26;;;;;;;13.63;4.97;;;;;;;;;;5099211;28;20236;-83
2022/10/27 06:35:57;;;;;;;10.68;5.22;;;;;;;;;;5103614;28;21031;-81
2022/10/27 06:38:24;;;;;;;8.15;4.82;;;;;;;;;;5091964;28;20648;-81
2022/10/27 06:40:51;;;;;;;10.88;5.22;;;;;;;;;;5101556;28;20226;-81
2022/10/27 06:43:18;;;;;;;10.88;4.95;;;;;;;;;;5092753;28;20277;-81
2022/10/27 06:45:47;;;;;;;10.70;4.93;;;;;;;;;;5099308;28;20238;-81
2022/10/27 06:48:14;;;;;;;9.57;5.25;;;;;;;;;;5091222;28;20305;-81
2022/10/27 06:50:43;;;;;;;10.43;5.15;;;;;;;;;;5092567;28;20286;-81
2022/10/27 06:53:10;;;;;;;8.85;5.00;;;;;;;;;;5091893;28;20233;-81
2022/10/27 06:55:37;;;;;;;10.50;5.00;;;;;;;;;;5091344;28;20285;-79
2022/10/27 06:58:04;;;;;;;14.10;5.32;;;;;;;;;;5091157;28;20256;-79
2022/10/27 07:00:31;;;;;;;12.65;5.07;;;;;;;;;;5091456;28;20201;-79
2022/10/27 07:02:59;;;;;;;13.93;5.30;;;;;;;;;;5091442;28;20285;-79
2022/10/27 07:05:26;;;;;;;13.55;5.28;;;;;;;;;;5107193;28;20296;-79
2022/10/27 07:07:56;;;;;;;10.23;5.18;;;;;;;;;;5092501;28;20257;-78
2022/10/27 07:10:23;;;;;;;10.50;5.22;;;;;;;;;;5092307;28;20209;-78
2022/10/27 07:12:54;;;;;;;12.43;5.07;;;;;;;;;;5099164;28;20261;-79
2022/10/27 07:15:21;;;;;;;10.48;5.00;;;;;;;;;;5097358;28;20281;-79
2022/10/27 07:17:48;;;;;;;10.95;5.20;;;;;;;;;;5098177;28;20277;-79
2022/10/27 07:20:15;;;;;;;14.63;5.43;;;;;;;;;;5094142;28;20288;-78
2022/10/27 07:22:43;;;;;;;13.10;5.30;;;;;;;;;;5093642;28;20226;-79
2022/10/27 07:25:11;;;;;;;12.43;5.63;;;;;;;;;;5092698;28;20282;-78
2022/10/27 07:27:38;;;;;;;12.30;5.25;;;;;;;;;;5111620;28;20245;-78
2022/10/27 07:30:06;;;;;;;11.52;5.03;;;;;;;;;;5099590;28;20716;-79
2022/10/27 07:32:33;;;;;;;13.40;5.35;;;;;;;;;;5104806;28;20202;-78
2022/10/27 07:35:02;;;;;;;12.70;5.35;;;;;;;;;;5096556;28;20281;-79
2022/10/27 07:37:29;;;;;;;13.48;5.43;;;;;;;;;;5101617;28;20191;-79
2022/10/27 07:39:59;;;;;;;12.63;5.47;;;;;;;;;;5092230;28;20226;-78
2022/10/27 07:42:27;;;;;;;14.18;5.38;;;;;;;;;;5098898;28;20707;-78
2022/10/27 07:44:54;;;;;;;11.77;5.22;;;;;;;;;;5101474;28;20247;-78
2022/10/27 07:47:21;;;;;;;15.07;5.00;;;;;;;;;;5103749;28;20305;-78
2022/10/27 07:49:48;;;;;;;11.77;5.43;;;;;;;;;;5102333;28;20289;-78
2022/10/27 07:52:16;;;;;;;12.98;5.38;;;;;;;;;;5096776;28;20198;-78
2022/10/27 07:54:43;;;;;;;12.13;5.32;;;;;;;;;;5105357;28;20289;-78
2022/10/27 07:57:10;;;;;;;9.35;5.20;;;;;;;;;;5099050;28;20226;-77
2022/10/27 07:59:39;;;;;;;10.93;5.65;;;;;;;;;;5103072;28;20637;-79
2022/10/27 08:05:21;;;;;;;8.80;4.70;;;;;;;;;;5079887;28;20613;-78
2022/10/27 08:07:49;;;;;;;11.10;5.32;;;;;;;;;;5109761;28;20328;-77
2022/10/27 08:10:16;;;;;;;11.07;5.43;;;;;;;;;;5094892;28;20277;-77
2022/10/27 08:12:43;;;;;;;12.23;5.63;;;;;;;;;;5094801;28;20272;-77
2022/10/27 08:15:13;;;;;;;11.43;5.20;;;;;;;;;;5093236;28;20208;-77
2022/10/27 08:17:40;;;;;;;12.68;5.25;;;;;;;;;;5111599;28;20262;-77
2022/10/27 08:20:08;;;;;;;11.35;5.07;;;;;;;;;;5115203;28;20281;-78
2022/10/27 08:22:35;;;;;;;10.05;4.50;;;;;;;;;;5108133;28;20289;-77
2022/10/27 08:25:02;;;;;;;11.27;5.63;;;;;;;;;;5097976;28;20228;-77
2022/10/27 08:27:29;;;;;;;13.10;5.35;;;;;;;;;;5097498;28;20610;-77
2022/10/27 08:29:56;;;;;;;9.77;5.47;;;;;;;;;;5105729;28;20253;-78
2022/10/27 08:32:25;;;;;;;12.25;5.68;;;;;;;;;;5104923;28;20237;-78
2022/10/27 08:34:52;;;;;;;13.48;5.43;;;;;;;;;;5107200;28;20209;-77
2022/10/27 08:37:20;;;;;;;11.02;5.25;;;;;;;;;;5099624;28;20909;-78
2022/10/27 08:39:47;;;;;;;11.30;5.82;;;;;;;;;;5095231;28;20245;-77
2022/10/27 08:42:19;;;;;;;13.63;5.57;;;;;;;;;;5103920;28;20241;-77
2022/10/27 08:44:47;;;;;;;11.30;5.40;;;;;;;;;;5112340;28;20285;-77
2022/10/27 08:47:19;;;;;;;11.23;6.13;;;;;;;;;;5104453;28;20190;-77
2022/10/27 08:49:50;;;;;;;9.38;5.10;;;;;;;;;;5112337;28;20297;-78
2022/10/27 08:52:21;;;;;;;15.85;5.38;;;;;;;;;;5109249;28;20698;-78
2022/10/27 08:54:49;;;;;;;10.13;5.00;;;;;;;;;;5114649;28;20228;-78
2022/10/27 08:57:19;;;;;;;11.95;4.45;;;;;;;;;;5104746;28;20281;-78
2022/10/27 08:59:47;;;;;;;11.45;4.95;;;;;;;;;;5111346;28;20708;-78
2022/10/27 09:02:22;;;;;;;10.18;4.55;;;;;;;;;;5115280;28;20288;-78
2022/10/27 09:05:08;;;;;;;10.95;5.25;;;;;;;;;;5100994;28;20282;-78
2022/10/27 09:07:38;;;;;;;12.73;4.80;;;;;;;;;;5104962;28;20237;-77
2022/10/27 09:10:06;;;;;;;11.23;5.28;;;;;;;;;;5101548;28;20288;-77
2022/10/27 09:12:47;;;;;;;12.90;5.18;;;;;;;;;;5099846;28;20316;-78
2022/10/27 09:15:32;;;;;;;9.57;5.15;;;;;;;;;;5100269;28;20261;-78
2022/10/27 09:18:02;;;;;;;13.00;5.28;;;;;;;;;;5089920;28;20247;-78
2022/10/27 09:20:33;;;;;;;12.57;5.30;;;;;;;;;;5107723;28;20325;-78
2022/10/27 09:23:05;;;;;;;10.23;5.13;;;;;;;;;;5110186;28;20683;-78
2022/10/27 09:25:33;;;;;;;13.70;5.72;;;;;;;;;;5104066;28;20629;-84
2022/10/27 09:28:00;;;;;;;12.43;5.30;;;;;;;;;;5104774;28;20712;-85
2022/10/27 09:30:33;;;;;;;12.05;6.18;;;;;;;;;;5102591;28;20321;-85
2022/10/27 09:33:01;;;;;;;14.65;5.80;;;;;;;;;;5094275;28;20293;-85
2022/10/27 09:35:29;;;;;;;13.52;6.00;;;;;;;;;;5093770;28;20226;-85
2022/10/27 09:37:58;;;;;;;13.07;5.18;;;;;;;;;;5095512;28;20692;-84
2022/10/27 09:40:27;;;;;;;11.30;5.22;;;;;;;;;;5112425;28;20296;-84
2022/10/27 09:42:55;;;;;;;12.23;5.28;;;;;;;;;;5103090;28;20616;-85
2022/10/27 09:45:23;;;;;;;11.75;5.15;;;;;;;;;;5110757;28;20251;-85
2022/10/27 09:47:52;;;;;;;13.93;5.22;;;;;;;;;;5109935;28;20230;-85
2022/10/27 09:50:21;;;;;;;11.10;5.38;;;;;;;;;;5093532;28;20195;-85
2022/10/27 09:52:48;;;;;;;14.45;5.35;;;;;;;;;;5102701;28;20222;-85
2022/10/27 09:55:18;;;;;;;17.23;6.07;;;;;;;;;;5111141;28;20203;-85
2022/10/27 09:57:46;;;;;;;14.45;5.40;;;;;;;;;;5098013;28;20225;-84
2022/10/27 10:00:27;;;;;;;13.07;5.63;;;;;;;;;;5093284;28;20230;-85
2022/10/27 10:03:00;;;;;;;11.80;5.47;;;;;;;;;;5090218;28;20234;-85
2022/10/27 10:05:28;;;;;;;11.15;5.28;;;;;;;;;;5093769;28;20244;-85
2022/10/27 10:08:11;;;;;;;10.80;5.25;;;;;;;;;;5094840;28;20222;-85
2022/10/27 10:10:40;;;;;;;13.88;5.35;;;;;;;;;;5101997;28;20226;-85
2022/10/27 10:13:09;;;;;;;11.88;5.20;;;;;;;;;;5101100;28;20309;-85
2022/10/27 10:15:38;;;;;;;14.55;4.95;;;;;;;;;;5103819;28;20627;-85
2022/10/27 10:18:06;;;;;;;10.30;5.18;;;;;;;;;;5112453;28;20727;-85
2022/10/27 10:20:34;;;;;;;13.05;5.10;;;;;;;;;;5092066;28;20278;-85
2022/10/27 10:23:02;;;;;;;14.40;4.97;;;;;;;;;;5092795;28;20255;-85
2022/10/27 10:25:31;;;;;;;13.93;5.35;;;;;;;;;;5091532;28;20629;-85
2022/10/27 10:28:02;;;;;;;11.55;5.32;;;;;;;;;;5092597;28;20205;-86
2022/10/27 10:30:32;;;;;;;13.27;5.53;;;;;;;;;;5092215;28;20228;-85
2022/10/27 10:33:01;;;;;;;12.02;5.25;;;;;;;;;;5097638;28;20288;-84
2022/10/27 10:35:43;;;;;;;13.18;5.35;;;;;;;;;;5109759;28;20657;-85
2022/10/27 10:38:25;;;;;;;14.80;6.20;;;;;;;;;;5111995;28;20644;-85
2022/10/27 10:40:57;;;;;;;12.30;6.00;;;;;;;;;;5111777;28;20233;-85
2022/10/27 10:43:25;;;;;;;14.73;5.30;;;;;;;;;;5105538;28;20194;-85
2022/10/27 10:45:53;;;;;;;12.60;5.68;;;;;;;;;;5101513;28;20281;-85
2022/10/27 10:48:25;;;;;;;13.63;5.55;;;;;;;;;;5112751;28;20308;-85
2022/10/27 10:50:53;;;;;;;11.00;5.40;;;;;;;;;;5113083;28;20229;-85
2022/10/27 10:53:31;;;;;;;13.95;5.70;;;;;;;;;;5112091;28;20268;-86
2022/10/27 10:56:00;;;;;;;13.13;5.25;;;;;;;;;;5105811;28;20277;-85
2022/10/27 10:58:31;;;;;;;12.02;5.80;;;;;;;;;;5111417;28;20694;-85
2022/10/27 11:00:59;;;;;;;13.68;5.25;;;;;;;;;;5091991;28;20194;-85
2022/10/27 11:03:29;;;;;;;13.43;5.32;;;;;;;;;;5091356;28;20260;-85
2022/10/27 11:05:58;;;;;;;10.00;5.00;;;;;;;;;;5091973;28;20681;-85
2022/10/27 11:08:27;;;;;;;15.57;5.15;;;;;;;;;;5095815;28;20304;-85
2022/10/27 11:10:56;;;;;;;15.70;5.28;;;;;;;;;;5096532;28;20663;-86
2022/10/27 11:13:25;;;;;;;12.52;5.05;;;;;;;;;;5095226;28;20230;-85
2022/10/27 11:15:56;;;;;;;14.30;4.68;;;;;;;;;;5096481;28;20285;-86
2022/10/27 11:18:24;;;;;;;11.80;4.88;;;;;;;;;;5096361;28;20220;-85
2022/10/27 11:20:54;;;;;;;17.33;5.20;;;;;;;;;;5096553;28;20293;-85
2022/10/27 11:23:22;;;;;;;13.60;4.75;;;;;;;;;;5114551;28;20236;-85
2022/10/27 11:25:51;;;;;;;15.23;5.28;;;;;;;;;;5110223;28;20230;-86
2022/10/27 11:28:22;;;;;;;13.98;4.70;;;;;;;;;;5096562;28;20569;-86
2022/10/27 11:30:53;;;;;;;13.52;5.13;;;;;;;;;;5096523;28;20233;-85
2022/10/27 11:33:24;;;;;;;13.65;5.03;;;;;;;;;;5114210;28;20251;-85
2022/10/27 11:35:55;;;;;;;15.25;5.47;;;;;;;;;;5115730;28;20229;-85
2022/10/27 11:38:30;;;;;;;13.13;5.25;;;;;;;;;;5108813;28;20628;-85
2022/10/27 11:40:59;;;;;;;10.85;5.00;;;;;;;;;;5107419;28;20280;-85
2022/10/27 11:43:29;;;;;;;10.68;4.40;;;;;;;;;;5096176;28;20230;-86
2022/10/27 11:46:01;;;;;;;15.15;5.57;;;;;;;;;;5100239;28;20275;-85
2022/10/27 11:48:33;;;;;;;16.08;5.30;;;;;;;;;;5100562;28;20232;-85
2022/10/27 11:51:02;;;;;;;13.10;5.45;;;;;;;;;;5116526;28;20229;-85
2022/10/27 11:53:29;;;;;;;15.07;5.72;;;;;;;;;;5105512;28;20234;-86
2022/10/27 11:56:05;;;;;;;13.43;5.60;;;;;;;;;;5099931;28;20639;-85
2022/10/27 11:58:36;;;;;;;16.48;5.47;;;;;;;;;;5095156;28;20222;-85
2022/10/27 12:01:08;;;;;;;14.65;5.22;;;;;;;;;;5094814;28;20694;-86
2022/10/27 12:03:57;;;;;;;10.85;5.20;;;;;;;;;;5095231;28;20191;-86
2022/10/27 12:06:28;;;;;;;12.15;5.32;;;;;;;;;;5091072;28;20259;-85
2022/10/27 12:08:59;;;;;;;13.10;5.20;;;;;;;;;;5094715;28;20224;-86
2022/10/27 12:11:32;;;;;;;11.27;5.25;;;;;;;;;;5094452;28;20209;-86
2022/10/27 12:14:03;;;;;;;13.55;5.40;;;;;;;;;;5100146;28;20281;-85
2022/10/27 12:16:32;;;;;;;15.13;5.03;;;;;;;;;;5115777;28;20230;-85
2022/10/27 12:19:02;;;;;;;14.48;4.70;;;;;;;;;;5110472;28;20632;-86
2022/10/27 12:21:35;;;;;;;11.82;4.97;;;;;;;;;;5109252;28;20289;-86
2022/10/27 12:24:04;;;;;;;12.70;4.82;;;;;;;;;;5115544;28;20232;-86
2022/10/27 12:26:34;;;;;;;13.55;4.55;;;;;;;;;;5107051;28;20198;-87
2022/10/27 12:29:03;;;;;;;13.23;4.60;;;;;;;;;;5100964;28;20314;-85
2022/10/27 12:31:31;;;;;;;13.05;5.40;;;;;;;;;;5102243;28;20273;-86
2022/10/27 12:34:00;;;;;;;16.92;4.78;;;;;;;;;;5113585;28;20225;-86
2022/10/27 12:36:31;;;;;;;17.48;5.50;;;;;;;;;;5113324;28;20229;-87
2022/10/27 12:39:04;;;;;;;12.15;4.68;;;;;;;;;;5115579;28;20194;-85
2022/10/27 12:41:32;;;;;;;14.80;5.32;;;;;;;;;;5094931;28;20232;-86
2022/10/27 12:44:07;;;;;;;11.73;4.68;;;;;;;;;;5099600;28;20243;-86
2022/10/27 12:46:54;;;;;;;15.43;5.00;;;;;;;;;;5097820;28;20697;-85
2022/10/27 12:49:26;;;;;;;10.60;4.55;;;;;;;;;;5106324;28;20757;-85
2022/10/27 12:52:00;;;;;;;8.60;4.43;;;;;;;;;;5108569;28;20290;-85
2022/10/27 12:54:35;;;;;;;12.63;4.85;;;;;;;;;;5110937;28;20232;-85
2022/10/27 12:57:07;;;;;;;7.45;4.18;;;;;;;;;;5093867;28;20222;-85
2022/10/27 12:59:36;;;;;;;9.55;4.47;;;;;;;;;;5100231;28;20241;-85
2022/10/27 13:02:09;;;;;;;12.70;4.70;;;;;;;;;;5099064;28;20578;-85
2022/10/27 13:04:52;;;;;;;8.88;4.63;;;;;;;;;;5093244;28;20583;-85
2022/10/27 13:07:54;;;;;;;13.18;4.18;;;;;;;;;;5093226;28;20245;-85
2022/10/27 13:10:36;;;;;;;10.00;3.78;;;;;;;;;;5102834;28;20213;-85
2022/10/27 13:13:09;;;;;;;14.65;4.70;;;;;;;;;;5091288;28;20261;-85
2022/10/27 13:15:54;;;;;;;8.65;3.83;;;;;;;;;;5091887;28;20289;-85
2022/10/27 13:18:36;;;;;;;11.60;4.80;;;;;;;;;;5096119;28;20277;-85
2022/10/27 13:21:08;;;;;;;8.73;4.57;;;;;;;;;;5099873;28;20226;-85
2022/10/27 13:23:42;;;;;;;12.60;4.65;;;;;;;;;;5105238;28;20299;-85
2022/10/27 13:26:14;;;;;;;11.13;4.13;;;;;;;;;;5094908;28;20218;-85
2022/10/27 13:28:45;;;;;;;13.27;4.80;;;;;;;;;;5093818;28;20238;-85
2022/10/27 13:31:15;;;;;;;11.80;4.38;;;;;;;;;;5098500;28;20253;-85
2022/10/27 13:33:58;;;;;;;10.65;4.07;;;;;;;;;;5108673;28;20229;-85
2022/10/27 13:36:26;;;;;;;10.70;4.35;;;;;;;;;;5096289;28;20201;-84
2022/10/27 13:39:21;;;;;;;12.50;4.25;;;;;;;;;;5094253;28;20202;-85
2022/10/27 13:41:49;;;;;;;8.38;4.35;;;;;;;;;;5093497;28;20238;-85
2022/10/27 13:44:29;;;;;;;9.48;4.63;;;;;;;;;;5093490;28;20281;-85
2022/10/27 13:47:11;;;;;;;15.32;4.82;;;;;;;;;;5106465;28;20276;-85
2022/10/27 13:49:57;;;;;;;10.43;4.28;;;;;;;;;;5097888;28;20306;-85
2022/10/27 13:52:25;;;;;;;12.80;4.40;;;;;;;;;;5093488;28;20674;-85
2022/10/27 13:54:54;;;;;;;9.90;4.28;;;;;;;;;;5093936;28;20244;-85
2022/10/27 13:57:43;;;;;;;14.38;4.40;;;;;;;;;;5093735;28;20210;-85
2022/10/27 14:00:14;;;;;;;11.40;4.15;;;;;;;;;;5101490;28;20218;-86
2022/10/27 14:02:47;;;;;;;11.10;4.35;;;;;;;;;;5108745;28;20286;-85
2022/10/27 14:05:21;;;;;;;12.68;3.97;;;;;;;;;;5101606;28;20276;-85
2022/10/27 14:07:49;;;;;;;10.77;4.78;;;;;;;;;;5097810;28;20283;-85
2022/10/27 14:10:22;;;;;;;12.05;4.00;;;;;;;;;;5093357;28;20256;-85
2022/10/27 14:12:50;;;;;;;12.30;4.35;;;;;;;;;;5094760;28;20728;-85
2022/10/27 14:15:23;;;;;;;13.13;4.35;;;;;;;;;;5095034;28;20293;-85
2022/10/27 14:17:51;;;;;;;10.60;4.25;;;;;;;;;;5092928;28;20294;-85
2022/10/27 14:20:21;;;;;;;9.30;4.47;;;;;;;;;;5093268;28;20224;-85
2022/10/27 14:22:49;;;;;;;10.95;4.40;;;;;;;;;;5093612;28;20222;-85
2022/10/27 14:25:18;;;;;;;10.00;4.22;;;;;;;;;;5092785;28;20234;-85
2022/10/27 14:27:45;;;;;;;8.98;4.22;;;;;;;;;;5093155;28;20300;-85
2022/10/27 14:30:14;;;;;;;14.30;4.43;;;;;;;;;;5092783;28;20313;-85
2022/10/27 14:32:43;;;;;;;11.80;3.92;;;;;;;;;;5102956;28;20628;-78
2022/10/27 14:35:17;;;;;;;11.00;3.83;;;;;;;;;;5106704;28;20241;-78
2022/10/27 14:37:44;;;;;;;11.38;4.15;;;;;;;;;;5101726;28;20236;-78
2022/10/27 14:40:16;;;;;;;11.80;4.00;;;;;;;;;;5102604;28;20253;-78
2022/10/27 14:42:44;;;;;;;10.75;4.05;;;;;;;;;;5107339;28;20277;-78
2022/10/27 14:45:13;;;;;;;10.52;4.00;;;;;;;;;;5092911;28;20229;-78
2022/10/27 14:47:43;;;;;;;12.60;4.18;;;;;;;;;;5097955;28;20203;-78
2022/10/27 14:50:13;;;;;;;9.80;4.20;;;;;;;;;;5104539;28;20217;-78
2022/10/27 14:52:42;;;;;;;10.23;4.43;;;;;;;;;;5110468;28;20231;-78
2022/10/27 14:55:17;;;;;;;13.82;4.00;;;;;;;;;;5096436;28;20737;-79